sensor_id;sensor_type;location;lat;lon;timestamp;pressure;altitude;pressure_sealevel;temperature;humidity
77227;BME280;66234;47.642;19.144;2024-01-27T00:00:21;100761.34;;;7.31;100.00
77227;BME280;66234;47.642;19.144;2024-01-27T00:03:24;100755.69;;;7.34;100.00
77227;BME280;66234;47.642;19.144;2024-01-27T00:06:27;100777.81;;;7.26;100.00
77227;BME280;66234;47.642;19.144;2024-01-27T00:09:29;100781.31;;;7.27;100.00
77227;BME280;66234;47.642;19.144;2024-01-27T00:12:32;100800.22;;;7.32;99.37
77227;BME280;66234;47.642;19.144;2024-01-27T00:15:35;100805.91;;;7.29;98.97
77227;BME280;66234;47.642;19.144;2024-01-27T00:18:38;100817.88;;;7.33;96.61
77227;BME280;66234;47.642;19.144;2024-01-27T00:21:41;100824.41;;;7.22;95.49
77227;BME280;66234;47.642;19.144;2024-01-27T00:24:43;100837.19;;;7.19;95.44
77227;BME280;66234;47.642;19.144;2024-01-27T00:27:46;100840.53;;;7.21;94.40
77227;BME280;66234;47.642;19.144;2024-01-27T00:30:49;100849.03;;;7.16;93.58
77227;BME280;66234;47.642;19.144;2024-01-27T00:33:51;100854.47;;;7.23;91.53
77227;BME280;66234;47.642;19.144;2024-01-27T00:36:54;100854.97;;;7.18;91.31
77227;BME280;66234;47.642;19.144;2024-01-27T00:39:56;100854.97;;;7.18;91.01
77227;BME280;66234;47.642;19.144;2024-01-27T00:42:59;100864.47;;;7.13;90.55
77227;BME280;66234;47.642;19.144;2024-01-27T00:46:02;100888.25;;;7.14;90.47
77227;BME280;66234;47.642;19.144;2024-01-27T00:49:04;100865.16;;;7.07;91.02
77227;BME280;66234;47.642;19.144;2024-01-27T00:52:07;100865.50;;;6.96;93.18
77227;BME280;66234;47.642;19.144;2024-01-27T00:55:10;100892.59;;;6.83;93.18
77227;BME280;66234;47.642;19.144;2024-01-27T00:58:12;100876.31;;;6.78;93.45
77227;BME280;66234;47.642;19.144;2024-01-27T01:01:15;100886.47;;;6.66;93.77
77227;BME280;66234;47.642;19.144;2024-01-27T01:04:17;100879.31;;;6.59;92.44
77227;BME280;66234;47.642;19.144;2024-01-27T01:07:20;100886.78;;;6.71;88.65
77227;BME280;66234;47.642;19.144;2024-01-27T01:10:22;100871.34;;;6.59;90.13
77227;BME280;66234;47.642;19.144;2024-01-27T01:13:25;100839.97;;;6.62;87.95
77227;BME280;66234;47.642;19.144;2024-01-27T01:16:28;100849.06;;;6.76;85.61
77227;BME280;66234;47.642;19.144;2024-01-27T01:19:30;100867.38;;;6.71;85.46
77227;BME280;66234;47.642;19.144;2024-01-27T01:22:33;100877.31;;;6.69;84.55
77227;BME280;66234;47.642;19.144;2024-01-27T01:25:35;100873.03;;;6.68;84.42
77227;BME280;66234;47.642;19.144;2024-01-27T01:28:38;100855.56;;;6.57;84.63
77227;BME280;66234;47.642;19.144;2024-01-27T01:31:42;100853.09;;;6.48;84.58
77227;BME280;66234;47.642;19.144;2024-01-27T01:34:47;100872.19;;;6.43;84.97
77227;BME280;66234;47.642;19.144;2024-01-27T01:37:50;100881.81;;;6.44;84.78
77227;BME280;66234;47.642;19.144;2024-01-27T01:40:53;100884.28;;;6.38;84.75
77227;BME280;66234;47.642;19.144;2024-01-27T01:43:56;100891.28;;;6.31;85.32
77227;BME280;66234;47.642;19.144;2024-01-27T01:46:58;100899.88;;;6.33;84.87
77227;BME280;66234;47.642;19.144;2024-01-27T01:50:01;100922.78;;;6.26;85.53
77227;BME280;66234;47.642;19.144;2024-01-27T01:53:04;100905.50;;;6.22;85.53
77227;BME280;66234;47.642;19.144;2024-01-27T01:56:08;100939.69;;;6.17;85.13
77227;BME280;66234;47.642;19.144;2024-01-27T01:59:11;100907.03;;;6.24;84.37
77227;BME280;66234;47.642;19.144;2024-01-27T02:02:13;100908.84;;;6.24;84.38
77227;BME280;66234;47.642;19.144;2024-01-27T02:05:16;100927.78;;;6.37;82.08
77227;BME280;66234;47.642;19.144;2024-01-27T02:08:18;100923.63;;;6.26;82.99
77227;BME280;66234;47.642;19.144;2024-01-27T02:11:21;100929.88;;;6.17;83.36
77227;BME280;66234;47.642;19.144;2024-01-27T02:14:24;100943.34;;;6.24;81.68
77227;BME280;66234;47.642;19.144;2024-01-27T02:17:28;100930.91;;;6.24;81.53
77227;BME280;66234;47.642;19.144;2024-01-27T02:20:31;100914.63;;;6.19;80.81
77227;BME280;66234;47.642;19.144;2024-01-27T02:23:34;100933.91;;;6.21;79.18
77227;BME280;66234;47.642;19.144;2024-01-27T02:26:37;100920.94;;;6.18;79.11
77227;BME280;66234;47.642;19.144;2024-01-27T02:29:39;100923.75;;;6.09;79.12
77227;BME280;66234;47.642;19.144;2024-01-27T02:32:42;100953.09;;;6.07;78.76
77227;BME280;66234;47.642;19.144;2024-01-27T02:35:44;100928.88;;;6.10;77.65
77227;BME280;66234;47.642;19.144;2024-01-27T02:38:47;100947.47;;;6.10;76.66
77227;BME280;66234;47.642;19.144;2024-01-27T02:41:50;100938.66;;;6.10;76.17
77227;BME280;66234;47.642;19.144;2024-01-27T02:44:52;100946.94;;;6.07;75.58
77227;BME280;66234;47.642;19.144;2024-01-27T02:47:55;100941.81;;;6.05;75.12
77227;BME280;66234;47.642;19.144;2024-01-27T02:50:58;100955.72;;;5.99;75.35
77227;BME280;66234;47.642;19.144;2024-01-27T02:54:04;100971.16;;;6.04;74.40
77227;BME280;66234;47.642;19.144;2024-01-27T02:57:06;101010.47;;;6.00;73.93
77227;BME280;66234;47.642;19.144;2024-01-27T03:00:12;100972.63;;;5.90;74.21
77227;BME280;66234;47.642;19.144;2024-01-27T03:03:15;101031.69;;;5.92;72.68
77227;BME280;66234;47.642;19.144;2024-01-27T03:06:17;101000.81;;;5.91;72.75
77227;BME280;66234;47.642;19.144;2024-01-27T03:09:20;100989.81;;;5.86;73.18
77227;BME280;66234;47.642;19.144;2024-01-27T03:12:22;101004.19;;;5.76;73.26
77227;BME280;66234;47.642;19.144;2024-01-27T03:15:25;101013.94;;;5.67;73.30
77227;BME280;66234;47.642;19.144;2024-01-27T03:18:29;101025.50;;;5.66;72.83
77227;BME280;66234;47.642;19.144;2024-01-27T03:21:32;101030.16;;;5.64;73.01
77227;BME280;66234;47.642;19.144;2024-01-27T03:24:35;101048.88;;;5.63;71.57
77227;BME280;66234;47.642;19.144;2024-01-27T03:27:37;101046.28;;;5.71;70.61
77227;BME280;66234;47.642;19.144;2024-01-27T03:30:40;101067.09;;;5.83;69.77
77227;BME280;66234;47.642;19.144;2024-01-27T03:33:43;101050.97;;;5.77;70.33
77227;BME280;66234;47.642;19.144;2024-01-27T03:36:48;101063.34;;;5.68;71.21
77227;BME280;66234;47.642;19.144;2024-01-27T03:39:51;101078.53;;;5.58;72.19
77227;BME280;66234;47.642;19.144;2024-01-27T03:42:54;101064.06;;;5.53;72.66
77227;BME280;66234;47.642;19.144;2024-01-27T03:45:59;101091.94;;;5.57;72.44
77227;BME280;66234;47.642;19.144;2024-01-27T03:49:02;101089.59;;;5.54;73.31
77227;BME280;66234;47.642;19.144;2024-01-27T03:52:05;101093.31;;;5.43;74.11
77227;BME280;66234;47.642;19.144;2024-01-27T03:55:07;101088.13;;;5.34;74.09
77227;BME280;66234;47.642;19.144;2024-01-27T03:58:10;101130.69;;;5.32;74.11
77227;BME280;66234;47.642;19.144;2024-01-27T04:01:12;101091.88;;;5.31;74.32
77227;BME280;66234;47.642;19.144;2024-01-27T04:04:15;101094.25;;;5.34;73.63
77227;BME280;66234;47.642;19.144;2024-01-27T04:07:18;101116.59;;;5.32;74.74
77227;BME280;66234;47.642;19.144;2024-01-27T04:10:21;101138.34;;;5.35;74.14
77227;BME280;66234;47.642;19.144;2024-01-27T04:13:24;101148.66;;;5.38;73.53
77227;BME280;66234;47.642;19.144;2024-01-27T04:16:26;101154.91;;;5.37;73.24
77227;BME280;66234;47.642;19.144;2024-01-27T04:19:29;101154.63;;;5.40;72.54
77227;BME280;66234;47.642;19.144;2024-01-27T04:22:33;101171.81;;;5.36;71.75
77227;BME280;66234;47.642;19.144;2024-01-27T04:25:35;101172.75;;;5.27;71.91
77227;BME280;66234;47.642;19.144;2024-01-27T04:28:38;101195.91;;;5.25;71.60
77227;BME280;66234;47.642;19.144;2024-01-27T04:31:41;101195.16;;;5.15;71.51
77227;BME280;66234;47.642;19.144;2024-01-27T04:34:47;101204.00;;;5.24;70.06
77227;BME280;66234;47.642;19.144;2024-01-27T04:37:49;101204.38;;;5.11;69.80
77227;BME280;66234;47.642;19.144;2024-01-27T04:40:53;101236.22;;;5.29;68.08
77227;BME280;66234;47.642;19.144;2024-01-27T04:43:56;101197.81;;;5.15;69.11
77227;BME280;66234;47.642;19.144;2024-01-27T04:46:58;101198.38;;;5.09;68.92
77227;BME280;66234;47.642;19.144;2024-01-27T04:50:01;101223.75;;;5.12;68.86
77227;BME280;66234;47.642;19.144;2024-01-27T04:53:04;101229.63;;;5.15;68.88
77227;BME280;66234;47.642;19.144;2024-01-27T04:56:07;101240.06;;;5.17;68.52
77227;BME280;66234;47.642;19.144;2024-01-27T04:59:14;101231.72;;;5.12;69.35
77227;BME280;66234;47.642;19.144;2024-01-27T05:02:18;101245.59;;;4.96;69.90
77227;BME280;66234;47.642;19.144;2024-01-27T05:05:21;101244.72;;;5.05;71.16
77227;BME280;66234;47.642;19.144;2024-01-27T05:08:23;101269.31;;;4.97;70.86
77227;BME280;66234;47.642;19.144;2024-01-27T05:11:29;101227.06;;;4.96;70.92
77227;BME280;66234;47.642;19.144;2024-01-27T05:14:33;101217.34;;;4.87;71.81
77227;BME280;66234;47.642;19.144;2024-01-27T05:17:36;101241.03;;;4.88;71.02
77227;BME280;66234;47.642;19.144;2024-01-27T05:20:38;101229.00;;;4.94;69.87
77227;BME280;66234;47.642;19.144;2024-01-27T05:23:41;101235.78;;;5.06;68.13
77227;BME280;66234;47.642;19.144;2024-01-27T05:26:44;101226.88;;;5.07;67.81
77227;BME280;66234;47.642;19.144;2024-01-27T05:29:46;101238.50;;;4.96;68.59
77227;BME280;66234;47.642;19.144;2024-01-27T05:32:49;101251.38;;;5.09;67.41
77227;BME280;66234;47.642;19.144;2024-01-27T05:35:52;101253.97;;;5.01;68.61
77227;BME280;66234;47.642;19.144;2024-01-27T05:38:54;101261.34;;;4.97;68.86
77227;BME280;66234;47.642;19.144;2024-01-27T05:41:57;101250.28;;;5.12;67.92
77227;BME280;66234;47.642;19.144;2024-01-27T05:44:59;101314.59;;;5.14;67.08
77227;BME280;66234;47.642;19.144;2024-01-27T05:48:02;101271.53;;;5.02;67.84
77227;BME280;66234;47.642;19.144;2024-01-27T05:51:05;101283.59;;;5.14;66.58
77227;BME280;66234;47.642;19.144;2024-01-27T05:54:08;101307.91;;;5.09;66.80
77227;BME280;66234;47.642;19.144;2024-01-27T05:57:12;101281.97;;;5.03;66.97
77227;BME280;66234;47.642;19.144;2024-01-27T06:00:15;101283.66;;;4.95;66.90
77227;BME280;66234;47.642;19.144;2024-01-27T06:03:17;101302.03;;;5.06;65.98
77227;BME280;66234;47.642;19.144;2024-01-27T06:06:20;101345.28;;;5.06;65.93
77227;BME280;66234;47.642;19.144;2024-01-27T06:09:23;101332.88;;;5.07;65.79
77227;BME280;66234;47.642;19.144;2024-01-27T06:12:25;101328.31;;;4.99;65.32
77227;BME280;66234;47.642;19.144;2024-01-27T06:15:28;101361.78;;;5.00;64.77
77227;BME280;66234;47.642;19.144;2024-01-27T06:18:30;101387.00;;;5.04;63.92
77227;BME280;66234;47.642;19.144;2024-01-27T06:21:33;101341.56;;;4.99;65.02
77227;BME280;66234;47.642;19.144;2024-01-27T06:24:41;101357.19;;;4.93;64.88
77227;BME280;66234;47.642;19.144;2024-01-27T06:27:45;101360.72;;;4.84;64.94
77227;BME280;66234;47.642;19.144;2024-01-27T06:30:47;101356.94;;;4.77;65.62
77227;BME280;66234;47.642;19.144;2024-01-27T06:33:50;101347.63;;;4.73;65.40
77227;BME280;66234;47.642;19.144;2024-01-27T06:36:52;101353.75;;;4.73;64.87
77227;BME280;66234;47.642;19.144;2024-01-27T06:39:55;101355.41;;;4.84;64.15
77227;BME280;66234;47.642;19.144;2024-01-27T06:42:58;101358.88;;;4.94;63.18
77227;BME280;66234;47.642;19.144;2024-01-27T06:46:03;101354.84;;;4.90;63.72
77227;BME280;66234;47.642;19.144;2024-01-27T06:49:06;101351.22;;;4.81;64.75
77227;BME280;66234;47.642;19.144;2024-01-27T06:52:08;101352.91;;;4.82;64.58
77227;BME280;66234;47.642;19.144;2024-01-27T06:55:11;101357.81;;;4.77;64.65
77227;BME280;66234;47.642;19.144;2024-01-27T06:58:13;101366.31;;;4.81;64.62
77227;BME280;66234;47.642;19.144;2024-01-27T07:01:16;101374.50;;;4.87;64.19
77227;BME280;66234;47.642;19.144;2024-01-27T07:04:19;101343.94;;;4.93;64.50
77227;BME280;66234;47.642;19.144;2024-01-27T07:07:30;101352.31;;;4.98;62.87
77227;BME280;66234;47.642;19.144;2024-01-27T07:10:34;101373.22;;;5.01;63.43
77227;BME280;66234;47.642;19.144;2024-01-27T07:13:36;101372.34;;;5.10;62.00
77227;BME280;66234;47.642;19.144;2024-01-27T07:16:39;101388.94;;;5.12;62.29
77227;BME280;66234;47.642;19.144;2024-01-27T07:19:41;101394.94;;;5.14;62.71
77227;BME280;66234;47.642;19.144;2024-01-27T07:22:44;101389.63;;;5.14;62.82
77227;BME280;66234;47.642;19.144;2024-01-27T07:25:47;101381.78;;;5.22;62.68
77227;BME280;66234;47.642;19.144;2024-01-27T07:28:49;101370.13;;;5.15;63.23
77227;BME280;66234;47.642;19.144;2024-01-27T07:31:52;101406.34;;;5.24;62.68
77227;BME280;66234;47.642;19.144;2024-01-27T07:34:55;101395.31;;;5.29;62.64
77227;BME280;66234;47.642;19.144;2024-01-27T07:37:58;101393.22;;;5.32;62.46
77227;BME280;66234;47.642;19.144;2024-01-27T07:41:00;101399.63;;;5.30;62.75
77227;BME280;66234;47.642;19.144;2024-01-27T07:44:11;101394.88;;;5.33;63.27
77227;BME280;66234;47.642;19.144;2024-01-27T07:47:14;101390.41;;;5.34;63.92
77227;BME280;66234;47.642;19.144;2024-01-27T07:50:16;101389.88;;;5.30;63.92
77227;BME280;66234;47.642;19.144;2024-01-27T07:53:19;101386.47;;;5.38;64.49
77227;BME280;66234;47.642;19.144;2024-01-27T07:56:21;101369.72;;;5.37;64.63
77227;BME280;66234;47.642;19.144;2024-01-27T07:59:24;101389.91;;;5.48;63.82
77227;BME280;66234;47.642;19.144;2024-01-27T08:02:26;101390.75;;;5.48;64.42
77227;BME280;66234;47.642;19.144;2024-01-27T08:05:29;101407.50;;;5.49;64.83
77227;BME280;66234;47.642;19.144;2024-01-27T08:08:32;101412.53;;;5.52;65.38
77227;BME280;66234;47.642;19.144;2024-01-27T08:11:34;101412.53;;;5.52;65.33
77227;BME280;66234;47.642;19.144;2024-01-27T08:14:37;101417.38;;;5.56;65.62
77227;BME280;66234;47.642;19.144;2024-01-27T08:17:40;101439.81;;;5.62;65.87
77227;BME280;66234;47.642;19.144;2024-01-27T08:20:43;101444.03;;;5.64;66.06
77227;BME280;66234;47.642;19.144;2024-01-27T08:23:45;101437.13;;;5.71;65.93
77227;BME280;66234;47.642;19.144;2024-01-27T08:26:48;101447.59;;;5.73;64.91
77227;BME280;66234;47.642;19.144;2024-01-27T08:29:50;101449.44;;;5.72;65.54
77227;BME280;66234;47.642;19.144;2024-01-27T08:32:55;101462.13;;;5.78;66.00
77227;BME280;66234;47.642;19.144;2024-01-27T08:35:58;101463.50;;;5.82;66.34
77227;BME280;66234;47.642;19.144;2024-01-27T08:39:01;101463.91;;;5.87;65.60
77227;BME280;66234;47.642;19.144;2024-01-27T08:42:04;101472.44;;;5.91;66.47
77227;BME280;66234;47.642;19.144;2024-01-27T08:45:06;101477.28;;;5.95;65.75
77227;BME280;66234;47.642;19.144;2024-01-27T08:48:09;101486.22;;;5.94;65.26
77227;BME280;66234;47.642;19.144;2024-01-27T08:51:13;101475.84;;;6.01;65.29
77227;BME280;66234;47.642;19.144;2024-01-27T08:54:18;101480.94;;;5.85;65.54
77227;BME280;66234;47.642;19.144;2024-01-27T08:57:21;101479.56;;;5.90;66.49
77227;BME280;66234;47.642;19.144;2024-01-27T09:00:24;101485.13;;;5.97;65.29
77227;BME280;66234;47.642;19.144;2024-01-27T09:03:27;101496.16;;;5.92;65.07
77227;BME280;66234;47.642;19.144;2024-01-27T09:06:29;101514.59;;;5.94;64.24
77227;BME280;66234;47.642;19.144;2024-01-27T09:09:33;101495.72;;;5.97;64.84
77227;BME280;66234;47.642;19.144;2024-01-27T09:12:36;101499.41;;;6.13;63.78
77227;BME280;66234;47.642;19.144;2024-01-27T09:15:39;101517.16;;;6.13;63.20
77227;BME280;66234;47.642;19.144;2024-01-27T09:18:42;101511.25;;;6.19;63.71
77227;BME280;66234;47.642;19.144;2024-01-27T09:21:44;101502.94;;;6.31;62.92
77227;BME280;66234;47.642;19.144;2024-01-27T09:24:47;101498.03;;;6.54;62.69
77227;BME280;66234;47.642;19.144;2024-01-27T09:27:50;101493.78;;;6.61;62.79
77227;BME280;66234;47.642;19.144;2024-01-27T09:30:53;101520.91;;;6.64;61.72
77227;BME280;66234;47.642;19.144;2024-01-27T09:33:55;101510.59;;;6.79;61.51
77227;BME280;66234;47.642;19.144;2024-01-27T09:36:59;101514.34;;;6.59;61.11
77227;BME280;66234;47.642;19.144;2024-01-27T09:40:01;101533.34;;;6.64;60.24
77227;BME280;66234;47.642;19.144;2024-01-27T09:43:05;101520.38;;;6.79;61.38
77227;BME280;66234;47.642;19.144;2024-01-27T09:46:08;101509.94;;;7.03;60.24
77227;BME280;66234;47.642;19.144;2024-01-27T09:49:12;101498.94;;;6.98;61.38
77227;BME280;66234;47.642;19.144;2024-01-27T09:52:16;101519.22;;;7.16;61.35
77227;BME280;66234;47.642;19.144;2024-01-27T09:55:18;101524.38;;;7.18;60.01
77227;BME280;66234;47.642;19.144;2024-01-27T09:58:21;101533.72;;;7.22;60.67
77227;BME280;66234;47.642;19.144;2024-01-27T10:01:24;101535.25;;;6.89;60.43
77227;BME280;66234;47.642;19.144;2024-01-27T10:04:28;101527.94;;;7.09;60.23
77227;BME280;66234;47.642;19.144;2024-01-27T10:07:32;101528.19;;;6.98;60.85
77227;BME280;66234;47.642;19.144;2024-01-27T10:10:35;101518.53;;;6.97;58.89
77227;BME280;66234;47.642;19.144;2024-01-27T10:13:39;101502.88;;;6.94;59.35
77227;BME280;66234;47.642;19.144;2024-01-27T10:16:44;101503.13;;;7.00;60.19
77227;BME280;66234;47.642;19.144;2024-01-27T10:19:47;101509.16;;;7.10;59.54
77227;BME280;66234;47.642;19.144;2024-01-27T10:22:50;101472.88;;;7.01;58.73
77227;BME280;66234;47.642;19.144;2024-01-27T10:25:53;101493.19;;;7.28;57.80
77227;BME280;66234;47.642;19.144;2024-01-27T10:28:59;101493.31;;;7.01;58.36
77227;BME280;66234;47.642;19.144;2024-01-27T10:32:09;101468.09;;;6.87;58.58
77227;BME280;66234;47.642;19.144;2024-01-27T10:35:13;101488.50;;;7.04;58.33
77227;BME280;66234;47.642;19.144;2024-01-27T10:38:16;101468.81;;;7.15;57.62
77227;BME280;66234;47.642;19.144;2024-01-27T10:41:23;101472.25;;;7.07;57.83
77227;BME280;66234;47.642;19.144;2024-01-27T10:44:30;101465.19;;;7.16;56.99
77227;BME280;66234;47.642;19.144;2024-01-27T10:47:33;101472.78;;;6.93;56.95
77227;BME280;66234;47.642;19.144;2024-01-27T10:50:38;101475.03;;;6.98;57.88
77227;BME280;66234;47.642;19.144;2024-01-27T10:53:49;101487.63;;;6.96;56.86
77227;BME280;66234;47.642;19.144;2024-01-27T10:56:56;101478.66;;;6.97;56.54
77227;BME280;66234;47.642;19.144;2024-01-27T11:00:01;101466.59;;;6.85;55.48
77227;BME280;66234;47.642;19.144;2024-01-27T11:03:07;101463.09;;;6.84;56.13
77227;BME280;66234;47.642;19.144;2024-01-27T11:06:11;101452.09;;;6.79;56.00
77227;BME280;66234;47.642;19.144;2024-01-27T11:09:15;101464.72;;;7.03;55.80
77227;BME280;66234;47.642;19.144;2024-01-27T11:12:19;101478.03;;;7.03;56.17
77227;BME280;66234;47.642;19.144;2024-01-27T11:15:23;101470.34;;;7.17;55.01
77227;BME280;66234;47.642;19.144;2024-01-27T11:18:26;101490.72;;;7.09;55.72
77227;BME280;66234;47.642;19.144;2024-01-27T11:21:29;101491.00;;;7.06;55.84
77227;BME280;66234;47.642;19.144;2024-01-27T11:24:32;101488.34;;;7.06;55.57
77227;BME280;66234;47.642;19.144;2024-01-27T11:27:35;101496.06;;;6.91;55.32
77227;BME280;66234;47.642;19.144;2024-01-27T11:30:38;101501.06;;;6.77;54.85
77227;BME280;66234;47.642;19.144;2024-01-27T11:33:43;101494.41;;;6.72;55.70
77227;BME280;66234;47.642;19.144;2024-01-27T11:36:47;101486.53;;;7.06;55.10
77227;BME280;66234;47.642;19.144;2024-01-27T11:39:51;101468.16;;;7.13;55.61
77227;BME280;66234;47.642;19.144;2024-01-27T11:43:01;101482.00;;;7.24;55.58
77227;BME280;66234;47.642;19.144;2024-01-27T11:46:09;101486.31;;;7.17;55.29
77227;BME280;66234;47.642;19.144;2024-01-27T11:49:15;101470.09;;;7.28;54.94
77227;BME280;66234;47.642;19.144;2024-01-27T11:52:20;101455.78;;;7.55;54.46
77227;BME280;66234;47.642;19.144;2024-01-27T11:55:22;101483.84;;;7.75;54.08
77227;BME280;66234;47.642;19.144;2024-01-27T11:58:25;101485.97;;;7.71;53.25
77227;BME280;66234;47.642;19.144;2024-01-27T12:01:28;101493.53;;;7.84;53.30
77227;BME280;66234;47.642;19.144;2024-01-27T12:04:30;101490.13;;;7.74;53.15
77227;BME280;66234;47.642;19.144;2024-01-27T12:07:34;101498.56;;;7.61;53.96
77227;BME280;66234;47.642;19.144;2024-01-27T12:10:37;101524.13;;;7.54;53.85
77227;BME280;66234;47.642;19.144;2024-01-27T12:13:39;101512.38;;;7.65;54.00
77227;BME280;66234;47.642;19.144;2024-01-27T12:16:42;101507.47;;;7.78;53.14
77227;BME280;66234;47.642;19.144;2024-01-27T12:19:48;101499.81;;;7.49;53.55
77227;BME280;66234;47.642;19.144;2024-01-27T12:23:02;101508.22;;;7.37;54.57
77227;BME280;66234;47.642;19.144;2024-01-27T12:26:05;101486.44;;;7.16;55.09
77227;BME280;66234;47.642;19.144;2024-01-27T12:29:08;101521.13;;;7.32;54.90
77227;BME280;66234;47.642;19.144;2024-01-27T12:32:10;101473.00;;;7.17;55.48
77227;BME280;66234;47.642;19.144;2024-01-27T12:35:13;101461.03;;;7.21;55.53
77227;BME280;66234;47.642;19.144;2024-01-27T12:38:19;101468.63;;;7.08;55.44
77227;BME280;66234;47.642;19.144;2024-01-27T12:41:21;101477.72;;;7.06;55.83
77227;BME280;66234;47.642;19.144;2024-01-27T12:44:24;101466.31;;;7.13;55.91
77227;BME280;66234;47.642;19.144;2024-01-27T12:47:27;101457.47;;;6.87;55.89
77227;BME280;66234;47.642;19.144;2024-01-27T12:50:29;101435.78;;;7.00;56.47
77227;BME280;66234;47.642;19.144;2024-01-27T12:53:33;101436.78;;;7.50;55.12
77227;BME280;66234;47.642;19.144;2024-01-27T12:56:35;101478.00;;;7.71;54.47
77227;BME280;66234;47.642;19.144;2024-01-27T12:59:38;101444.88;;;7.74;54.48
77227;BME280;66234;47.642;19.144;2024-01-27T13:02:40;101448.06;;;7.18;56.46
77227;BME280;66234;47.642;19.144;2024-01-27T13:05:43;101457.22;;;6.98;57.53
77227;BME280;66234;47.642;19.144;2024-01-27T13:08:46;101474.94;;;6.90;57.60
77227;BME280;66234;47.642;19.144;2024-01-27T13:11:49;101431.88;;;6.86;57.90
77227;BME280;66234;47.642;19.144;2024-01-27T13:14:52;101443.56;;;6.93;57.71
77227;BME280;66234;47.642;19.144;2024-01-27T13:17:55;101451.84;;;6.90;58.04
77227;BME280;66234;47.642;19.144;2024-01-27T13:20:57;101457.00;;;6.92;57.70
77227;BME280;66234;47.642;19.144;2024-01-27T13:24:00;101458.63;;;6.85;57.63
77227;BME280;66234;47.642;19.144;2024-01-27T13:27:03;101450.50;;;6.86;57.04
77227;BME280;66234;47.642;19.144;2024-01-27T13:30:08;101454.50;;;6.90;56.66
77227;BME280;66234;47.642;19.144;2024-01-27T13:33:12;101459.06;;;6.80;57.36
77227;BME280;66234;47.642;19.144;2024-01-27T13:36:15;101469.56;;;6.82;57.33
77227;BME280;66234;47.642;19.144;2024-01-27T13:39:19;101475.03;;;6.80;58.51
77227;BME280;66234;47.642;19.144;2024-01-27T13:42:22;101485.34;;;7.01;57.79
77227;BME280;66234;47.642;19.144;2024-01-27T13:45:24;101473.09;;;6.90;58.22
77227;BME280;66234;47.642;19.144;2024-01-27T13:48:27;101491.97;;;6.79;57.79
77227;BME280;66234;47.642;19.144;2024-01-27T13:51:30;101487.09;;;6.74;58.14
77227;BME280;66234;47.642;19.144;2024-01-27T13:54:33;101480.28;;;6.72;58.25
77227;BME280;66234;47.642;19.144;2024-01-27T13:57:38;101495.53;;;6.88;57.52
77227;BME280;66234;47.642;19.144;2024-01-27T14:00:43;101480.34;;;6.62;58.64
77227;BME280;66234;47.642;19.144;2024-01-27T14:03:46;101482.59;;;6.57;58.94
77227;BME280;66234;47.642;19.144;2024-01-27T14:06:49;101465.47;;;6.52;59.00
77227;BME280;66234;47.642;19.144;2024-01-27T14:09:51;101456.94;;;6.48;58.93
77227;BME280;66234;47.642;19.144;2024-01-27T14:12:54;101474.19;;;6.44;59.22
77227;BME280;66234;47.642;19.144;2024-01-27T14:15:56;101473.88;;;6.47;59.38
77227;BME280;66234;47.642;19.144;2024-01-27T14:19:00;101464.25;;;6.46;59.51
77227;BME280;66234;47.642;19.144;2024-01-27T14:22:03;101460.59;;;6.47;59.81
77227;BME280;66234;47.642;19.144;2024-01-27T14:25:06;101449.50;;;6.34;59.98
77227;BME280;66234;47.642;19.144;2024-01-27T14:28:10;101442.00;;;6.30;60.66
77227;BME280;66234;47.642;19.144;2024-01-27T14:31:13;101444.28;;;6.25;61.03
77227;BME280;66234;47.642;19.144;2024-01-27T14:34:17;101429.06;;;6.17;61.49
77227;BME280;66234;47.642;19.144;2024-01-27T14:37:21;101411.47;;;6.16;61.32
77227;BME280;66234;47.642;19.144;2024-01-27T14:40:24;101426.50;;;6.08;61.61
77227;BME280;66234;47.642;19.144;2024-01-27T14:43:27;101423.69;;;6.09;61.00
77227;BME280;66234;47.642;19.144;2024-01-27T14:46:30;101444.41;;;6.06;61.70
77227;BME280;66234;47.642;19.144;2024-01-27T14:49:33;101433.09;;;6.04;61.62
77227;BME280;66234;47.642;19.144;2024-01-27T14:52:36;101432.84;;;5.97;62.53
77227;BME280;66234;47.642;19.144;2024-01-27T14:55:38;101468.34;;;5.96;62.12
77227;BME280;66234;47.642;19.144;2024-01-27T14:58:41;101449.47;;;5.99;61.44
77227;BME280;66234;47.642;19.144;2024-01-27T15:01:44;101453.56;;;5.94;62.41
77227;BME280;66234;47.642;19.144;2024-01-27T15:04:49;101474.50;;;5.97;61.58
77227;BME280;66234;47.642;19.144;2024-01-27T15:07:51;101464.97;;;5.94;62.38
77227;BME280;66234;47.642;19.144;2024-01-27T15:10:54;101461.97;;;5.89;62.37
77227;BME280;66234;47.642;19.144;2024-01-27T15:13:56;101481.47;;;5.98;62.02
77227;BME280;66234;47.642;19.144;2024-01-27T15:16:59;101469.78;;;5.91;61.58
77227;BME280;66234;47.642;19.144;2024-01-27T15:20:02;101475.38;;;5.88;62.38
77227;BME280;66234;47.642;19.144;2024-01-27T15:23:05;101477.03;;;5.89;61.75
77227;BME280;66234;47.642;19.144;2024-01-27T15:26:08;101490.91;;;5.83;62.38
77227;BME280;66234;47.642;19.144;2024-01-27T15:29:12;101480.69;;;5.88;62.79
77227;BME280;66234;47.642;19.144;2024-01-27T15:32:15;101477.34;;;5.76;62.99
77227;BME280;66234;47.642;19.144;2024-01-27T15:35:23;101487.50;;;5.81;62.67
77227;BME280;66234;47.642;19.144;2024-01-27T15:38:26;101484.75;;;5.82;62.53
77227;BME280;66234;47.642;19.144;2024-01-27T15:41:28;101502.47;;;5.82;62.90
77227;BME280;66234;47.642;19.144;2024-01-27T15:44:31;101494.38;;;5.83;62.62
77227;BME280;66234;47.642;19.144;2024-01-27T15:47:34;101508.91;;;5.79;62.96
77227;BME280;66234;47.642;19.144;2024-01-27T15:50:36;101495.78;;;5.78;63.14
77227;BME280;66234;47.642;19.144;2024-01-27T15:53:39;101526.78;;;5.87;62.81
77227;BME280;66234;47.642;19.144;2024-01-27T15:56:41;101524.81;;;5.89;62.18